Time;durP1;ratioP1;P1;durP2;ratioP2;P2;SDS_P1;SDS_P2;PMS_P1;PMS_P2;Temp;Humidity;BMP_temperature;BMP_pressure;BME280_temperature;BME280_humidity;BME280_pressure;Samples;Min_cycle;Max_cycle;Signal;HPM_P1;HPM_P2
2022/09/23 00:00:10;;;;;;;;;;;;;;;10.46;100.00;98681.02;1688857;83;26834;-89
2022/09/23 00:02:38;;;;;;;;;;;;;;;10.45;100.00;98686.72;1687026;83;20150;-89
2022/09/23 00:05:04;;;;;;;;;;;;;;;10.45;100.00;98678.88;1686527;83;20847;-89
2022/09/23 00:07:30;;;;;;;;;;;;;;;10.45;100.00;98678.03;1688006;83;24617;-85
2022/09/23 00:09:56;;;;;;;;;;;;;;;10.45;100.00;98676.26;1686149;83;20795;-85
2022/09/23 00:12:23;;;;;;;;;;;;;;;10.46;100.00;98674.02;1710272;82;21213;-85
2022/09/23 00:14:49;;;;;;;;;;;;;;;10.47;100.00;98672.24;1685587;83;24511;-84
2022/09/23 00:17:20;;;;;;;;;;;;;;;10.45;100.00;98666.26;1712286;82;20254;-85
2022/09/23 00:19:54;;;;;;;;;;;;;;;10.42;100.00;98666.44;1710683;82;24604;-88
2022/09/23 00:22:22;;;;;;;;;;;;;;;10.39;100.00;98666.66;1709717;83;21691;-88
2022/09/23 00:24:48;;;;;;;;;;;;;;;10.35;100.00;98669.11;1706470;83;26052;-88
2022/09/23 00:27:15;;;;;;;;;;;;;;;10.34;100.00;98664.81;1709143;82;24474;-88
2022/09/23 00:29:41;;;;;;;;;;;;;;;10.33;100.00;98663.12;1708290;83;20399;-88
2022/09/23 00:32:07;;;;;;;;;;;;;;;10.32;100.00;98666.21;1711828;82;20290;-88
2022/09/23 00:34:33;;;;;;;;;;;;;;;10.32;100.00;98664.90;1701968;83;20828;-88
2022/09/23 00:37:00;;;;;;;;;;;;;;;10.30;100.00;98656.80;1689420;82;41592;-87
2022/09/23 00:39:41;;;;;;;;;;;;;;;10.24;100.00;98655.89;1706441;82;24441;-87
2022/09/23 00:42:19;;;;;;;;;;;;;;;10.20;100.00;98650.00;1711984;82;20170;-85
2022/09/23 00:44:49;;;;;;;;;;;;;;;10.14;100.00;98655.62;1708778;82;24693;-85
2022/09/23 00:47:35;;;;;;;;;;;;;;;10.13;100.00;98656.55;1715744;81;21963;-85
2022/09/23 00:50:20;;;;;;;;;;;;;;;10.10;100.00;98652.81;1672181;83;26109;-85
2022/09/23 00:52:47;;;;;;;;;;;;;;;10.08;100.00;98653.40;1677307;84;24771;-85
2022/09/23 00:55:15;;;;;;;;;;;;;;;10.04;100.00;98657.13;1701881;83;20269;-84
2022/09/23 00:57:42;;;;;;;;;;;;;;;9.97;100.00;98655.39;1698881;83;24472;-84
2022/09/23 01:00:09;;;;;;;;;;;;;;;9.97;100.00;98651.47;1700006;83;23367;-85
2022/09/23 01:02:40;;;;;;;;;;;;;;;9.99;100.00;98654.80;1737975;81;26051;-84
2022/09/23 01:05:06;;;;;;;;;;;;;;;9.98;100.00;98653.62;1753450;80;24486;-85
2022/09/23 01:07:34;;;;;;;;;;;;;;;9.99;100.00;98647.42;1751165;79;20316;-84
2022/09/23 01:10:01;;;;;;;;;;;;;;;9.98;100.00;98646.58;1756274;81;24539;-84
2022/09/23 01:12:50;;;;;;;;;;;;;;;9.94;100.00;98640.34;1751706;80;22693;-84
2022/09/23 01:15:36;;;;;;;;;;;;;;;10.00;100.00;98639.96;1757588;79;25851;-84
2022/09/23 01:18:30;;;;;;;;;;;;;;;9.95;100.00;98642.03;1756856;80;25094;-88
2022/09/23 01:21:16;;;;;;;;;;;;;;;9.89;100.00;98638.03;1754662;80;20175;-90
2022/09/23 01:23:52;;;;;;;;;;;;;;;9.85;100.00;98643.56;1760032;79;24697;-84
2022/09/23 01:26:20;;;;;;;;;;;;;;;9.77;100.00;98640.58;1759302;79;22049;-84
2022/09/23 01:29:01;;;;;;;;;;;;;;;9.73;100.00;98644.33;1765014;79;26220;-84
2022/09/23 01:31:45;;;;;;;;;;;;;;;9.69;100.00;98644.16;1758192;79;24435;-84
2022/09/23 01:34:17;;;;;;;;;;;;;;;9.67;100.00;98637.71;1748135;80;20250;-89
2022/09/23 01:36:47;;;;;;;;;;;;;;;9.63;100.00;98629.23;1756600;79;24627;-89
2022/09/23 01:39:24;;;;;;;;;;;;;;;9.63;100.00;98635.77;1755508;80;22102;-89
2022/09/23 01:42:16;;;;;;;;;;;;;;;9.61;100.00;98636.33;1754255;80;26128;-88
2022/09/23 01:44:56;;;;;;;;;;;;;;;9.60;100.00;98638.55;1761614;79;24445;-88
2022/09/23 01:47:42;;;;;;;;;;;;;;;9.54;100.00;98638.13;1761772;80;20218;-88
2022/09/23 01:53:06;;;;;;;;;;;;;;;9.57;100.00;98633.54;1766159;80;22120;-89
2022/09/23 01:55:36;;;;;;;;;;;;;;;9.58;100.00;98639.61;1755473;80;26232;-89
2022/09/23 01:58:04;;;;;;;;;;;;;;;9.56;100.00;98644.92;1760763;80;24444;-88
2022/09/23 02:00:41;;;;;;;;;;;;;;;9.58;100.00;98638.30;1764950;80;20218;-89
2022/09/23 02:03:18;;;;;;;;;;;;;;;9.56;100.00;98638.39;1767225;80;24626;-89
2022/09/23 02:05:52;;;;;;;;;;;;;;;9.55;100.00;98638.01;1766437;80;22028;-89
2022/09/23 02:08:36;;;;;;;;;;;;;;;9.54;100.00;98634.20;1764252;79;26929;-89
2022/09/23 02:11:14;;;;;;;;;;;;;;;9.55;100.00;98634.09;1768885;80;24397;-89
2022/09/23 02:13:57;;;;;;;;;;;;;;;9.57;100.00;98636.15;1765400;80;20343;-89
2022/09/23 02:16:31;;;;;;;;;;;;;;;9.57;100.00;98635.31;1755631;80;24516;-89
2022/09/23 02:21:47;;;;;;;;;;;;;;;9.60;100.00;98633.83;1761844;80;26156;-89
2022/09/23 02:24:19;;;;;;;;;;;;;;;9.63;100.00;98638.38;1765970;80;24265;-89
2022/09/23 02:26:52;;;;;;;;;;;;;;;9.63;100.00;98638.84;1760759;79;20528;-89
2022/09/23 02:29:20;;;;;;;;;;;;;;;9.63;100.00;98633.16;1767715;80;26055;-89
2022/09/23 02:32:05;;;;;;;;;;;;;;;9.63;100.00;98631.01;1756274;79;22040;-89
2022/09/23 02:34:33;;;;;;;;;;;;;;;9.63;100.00;98630.55;1740365;80;26235;-89
2022/09/23 02:37:03;;;;;;;;;;;;;;;9.68;100.00;98626.80;1764573;79;24522;-89
2022/09/23 02:39:31;;;;;;;;;;;;;;;9.70;100.00;98624.47;1766308;79;20216;-89
2022/09/23 02:42:02;;;;;;;;;;;;;;;9.73;100.00;98622.11;1759467;79;24510;-89
2022/09/23 02:44:27;;;;;;;;;;;;;;;9.73;100.00;98624.27;1766835;79;21965;-89
2022/09/23 02:46:55;;;;;;;;;;;;;;;9.72;100.00;98623.05;1765267;79;20974;-89
2022/09/23 02:49:31;;;;;;;;;;;;;;;9.70;100.00;98629.70;1768688;80;23904;-89
2022/09/23 02:51:58;;;;;;;;;;;;;;;9.70;100.00;98628.86;1757873;79;20233;-89
2022/09/23 02:54:26;;;;;;;;;;;;;;;9.71;100.00;98627.92;1763181;79;24552;-89
2022/09/23 02:56:52;;;;;;;;;;;;;;;9.73;100.00;98628.65;1762718;80;21951;-89
2022/09/23 02:59:20;;;;;;;;;;;;;;;9.72;100.00;98631.73;1758537;80;26023;-89
2022/09/23 03:01:47;;;;;;;;;;;;;;;9.70;100.00;98628.86;1758604;79;24545;-85
2022/09/23 03:04:15;;;;;;;;;;;;;;;9.70;100.00;98628.86;1758404;79;20444;-85
2022/09/23 03:07:01;;;;;;;;;;;;;;;9.69;100.00;98630.63;1762129;80;25177;-85
2022/09/23 03:09:37;;;;;;;;;;;;;;;9.70;100.00;98626.24;1762183;79;22054;-85
2022/09/23 03:12:21;;;;;;;;;;;;;;;9.74;100.00;98625.95;1719341;81;25960;-89
2022/09/23 03:14:52;;;;;;;;;;;;;;;9.75;100.00;98622.87;1762428;80;24583;-89
2022/09/23 03:17:24;;;;;;;;;;;;;;;9.72;100.00;98629.58;1763099;80;20193;-88
2022/09/23 03:19:57;;;;;;;;;;;;;;;9.69;100.00;98625.86;1764517;79;25188;-89
2022/09/23 03:22:33;;;;;;;;;;;;;;;9.64;100.00;98626.16;1758221;80;20452;-88
2022/09/23 03:25:06;;;;;;;;;;;;;;;9.62;100.00;98629.33;1760232;79;27009;-89
2022/09/23 03:27:35;;;;;;;;;;;;;;;9.60;100.00;98625.49;1756606;79;25448;-88
2022/09/23 03:30:03;;;;;;;;;;;;;;;9.55;100.00;98619.72;1763889;80;20321;-89
2022/09/23 03:32:35;;;;;;;;;;;;;;;9.54;100.00;98616.77;1760809;80;24800;-88
2022/09/23 03:35:05;;;;;;;;;;;;;;;9.52;100.00;98626.45;1761904;80;21985;-88
2022/09/23 03:37:54;;;;;;;;;;;;;;;9.47;100.00;98621.98;1759594;80;26850;-88
2022/09/23 03:40:32;;;;;;;;;;;;;;;9.53;100.00;98625.53;1731069;81;20633;-89
2022/09/23 03:43:04;;;;;;;;;;;;;;;9.55;100.00;98626.25;1758085;80;20504;-88
2022/09/23 03:45:48;;;;;;;;;;;;;;;9.55;100.00;98631.48;1760936;80;24685;-88
2022/09/23 03:48:16;;;;;;;;;;;;;;;9.55;100.00;98630.17;1763325;79;22704;-88
2022/09/23 03:50:42;;;;;;;;;;;;;;;9.58;100.00;98630.00;1763844;80;26662;-87
2022/09/23 03:53:12;;;;;;;;;;;;;;;9.58;100.00;98631.30;1761675;79;24429;-87
2022/09/23 03:55:39;;;;;;;;;;;;;;;9.58;100.00;98623.93;1765823;80;20404;-87
2022/09/23 03:58:07;;;;;;;;;;;;;;;9.59;100.00;98624.30;1768152;79;25143;-87
2022/09/23 04:00:36;;;;;;;;;;;;;;;9.63;100.00;98615.33;1763058;79;22941;-87
2022/09/23 04:03:02;;;;;;;;;;;;;;;9.63;100.00;98617.48;1762660;79;26207;-87
2022/09/23 04:05:29;;;;;;;;;;;;;;;9.63;100.00;98613.56;1759132;80;21250;-87
2022/09/23 04:07:56;;;;;;;;;;;;;;;9.65;100.00;98614.28;1764191;79;20478;-87
2022/09/23 04:10:22;;;;;;;;;;;;;;;9.68;100.00;98614.57;1764009;79;24547;-87
2022/09/23 04:12:50;;;;;;;;;;;;;;;9.67;100.00;98616.80;1762366;79;20303;-87
2022/09/23 04:15:16;;;;;;;;;;;;;;;9.64;100.00;98619.63;1765524;80;25951;-88
2022/09/23 04:17:42;;;;;;;;;;;;;;;9.65;100.00;98612.98;1763606;79;24650;-87
2022/09/23 04:20:08;;;;;;;;;;;;;;;9.65;100.00;98609.55;1766893;79;20846;-88
2022/09/23 04:22:40;;;;;;;;;;;;;;;9.61;100.00;98614.11;1763035;79;25390;-88
2022/09/23 04:25:06;;;;;;;;;;;;;;;9.58;100.00;98617.40;1766025;79;22151;-88
2022/09/23 04:27:33;;;;;;;;;;;;;;;9.55;100.00;98610.58;1761080;79;26942;-88
2022/09/23 04:29:59;;;;;;;;;;;;;;;9.54;100.00;98607.62;1765049;79;24675;-88
2022/09/23 04:32:25;;;;;;;;;;;;;;;9.55;100.00;98609.27;1763237;80;20223;-88
2022/09/23 04:34:52;;;;;;;;;;;;;;;9.54;100.00;98610.70;1766045;80;20799;-87
2022/09/23 04:37:21;;;;;;;;;;;;;;;9.52;100.00;98617.31;1761699;79;22093;-88
2022/09/23 04:39:48;;;;;;;;;;;;;;;9.53;100.00;98622.91;1759669;79;26031;-88
2022/09/23 04:42:16;;;;;;;;;;;;;;;9.54;100.00;98619.84;1763722;79;24522;-88
2022/09/23 04:44:47;;;;;;;;;;;;;;;9.53;100.00;98621.61;1761040;80;20484;-88
2022/09/23 04:47:10;;;;;;;;;;;;;;;9.55;100.00;98613.66;1752363;80;24561;-88
2022/09/23 04:49:37;;;;;;;;;;;;;;;9.57;100.00;98625.70;1726591;81;20225;-88
2022/09/23 04:52:04;;;;;;;;;;;;;;;9.60;100.00;98628.60;1717498;80;25511;-88
2022/09/23 04:54:30;;;;;;;;;;;;;;;9.59;100.00;98629.53;1735903;80;24539;-88
2022/09/23 04:56:56;;;;;;;;;;;;;;;9.60;100.00;98626.80;1749493;80;20229;-88
2022/09/23 04:59:23;;;;;;;;;;;;;;;9.62;100.00;98624.09;1729499;80;20266;-88
2022/09/23 05:01:50;;;;;;;;;;;;;;;9.60;100.00;98625.49;1741077;80;22748;-88
2022/09/23 05:04:17;;;;;;;;;;;;;;;9.64;100.00;98620.47;1739580;80;25956;-88
2022/09/23 05:06:44;;;;;;;;;;;;;;;9.60;100.00;98628.11;1736060;80;24444;-88
2022/09/23 05:09:14;;;;;;;;;;;;;;;9.49;100.00;98633.16;1736596;80;20212;-88
2022/09/23 05:11:40;;;;;;;;;;;;;;;9.40;100.00;98635.05;1730182;80;25146;-88
2022/09/23 05:14:06;;;;;;;;;;;;;;;9.38;100.00;98629.56;1736737;81;20227;-88
2022/09/23 05:16:32;;;;;;;;;;;;;;;9.44;100.00;98629.16;1737322;80;20964;-88
2022/09/23 05:18:58;;;;;;;;;;;;;;;9.58;100.00;98622.63;1732842;81;20896;-88
2022/09/23 05:21:30;;;;;;;;;;;;;;;9.68;100.00;98620.27;1757476;80;20166;-89
2022/09/23 05:23:59;;;;;;;;;;;;;;;9.76;100.00;98624.55;1728908;80;25350;-88
2022/09/23 05:26:25;;;;;;;;;;;;;;;9.81;100.00;98622.48;1740726;80;21690;-88
2022/09/23 05:28:52;;;;;;;;;;;;;;;9.82;100.00;98622.86;1735646;80;26038;-89
2022/09/23 05:31:19;;;;;;;;;;;;;;;9.86;100.00;98626.95;1732698;80;24481;-89
2022/09/23 05:33:52;;;;;;;;;;;;;;;9.91;100.00;98631.41;1738597;80;20252;-88
2022/09/23 05:36:21;;;;;;;;;;;;;;;9.95;100.00;98635.50;1735103;80;24761;-88
2022/09/23 05:38:48;;;;;;;;;;;;;;;9.95;100.00;98629.80;1735002;80;21963;-88
2022/09/23 05:41:15;;;;;;;;;;;;;;;9.96;100.00;98637.18;1736753;80;26682;-88
2022/09/23 05:43:41;;;;;;;;;;;;;;;9.99;100.00;98639.12;1735402;80;24575;-88
2022/09/23 05:46:08;;;;;;;;;;;;;;;10.03;100.00;98639.78;1740286;80;20242;-89
2022/09/23 05:48:35;;;;;;;;;;;;;;;10.06;100.00;98644.33;1758756;80;24589;-88
2022/09/23 05:51:01;;;;;;;;;;;;;;;10.10;100.00;98643.66;1762331;79;22662;-88
2022/09/23 05:53:28;;;;;;;;;;;;;;;10.11;100.00;98638.80;1761097;79;26021;-88
2022/09/23 05:55:57;;;;;;;;;;;;;;;10.13;100.00;98632.17;1757422;79;24404;-88
2022/09/23 05:58:23;;;;;;;;;;;;;;;10.14;100.00;98636.00;1765916;79;20301;-88
2022/09/23 06:00:49;;;;;;;;;;;;;;;10.15;100.00;98641.58;1762607;80;24603;-88
2022/09/23 06:03:16;;;;;;;;;;;;;;;10.16;100.00;98642.42;1761095;79;22742;-88
2022/09/23 06:05:42;;;;;;;;;;;;;;;10.18;100.00;98642.73;1757958;80;26677;-86
2022/09/23 06:08:08;;;;;;;;;;;;;;;10.19;100.00;98638.35;1760600;79;20287;-86
2022/09/23 06:10:38;;;;;;;;;;;;;;;10.20;100.00;98640.84;1761788;80;20268;-86
2022/09/23 06:13:04;;;;;;;;;;;;;;;10.23;100.00;98638.05;1755071;79;24581;-86
2022/09/23 06:15:31;;;;;;;;;;;;;;;10.29;100.00;98640.73;1762726;80;22016;-86
2022/09/23 06:17:58;;;;;;;;;;;;;;;10.34;100.00;98644.73;1761275;79;26165;-86
2022/09/23 06:20:24;;;;;;;;;;;;;;;10.38;100.00;98645.35;1761968;79;24442;-86
2022/09/23 06:22:50;;;;;;;;;;;;;;;10.42;100.00;98647.66;1763645;79;20385;-86
2022/09/23 06:25:18;;;;;;;;;;;;;;;10.47;100.00;98643.45;1757740;79;20226;-86
2022/09/23 06:27:44;;;;;;;;;;;;;;;10.55;100.00;98647.70;1762169;80;22042;-86
2022/09/23 06:30:11;;;;;;;;;;;;;;;10.64;100.00;98648.85;1762365;79;25932;-86
2022/09/23 06:32:37;;;;;;;;;;;;;;;10.68;100.00;98646.42;1758126;79;25347;-85
2022/09/23 06:35:04;;;;;;;;;;;;;;;10.74;100.00;98650.78;1750848;79;20245;-86
2022/09/23 06:37:31;;;;;;;;;;;;;;;10.81;100.00;98657.73;1760568;80;20249;-88
2022/09/23 06:39:57;;;;;;;;;;;;;;;10.86;100.00;98656.95;1766642;79;21778;-89
2022/09/23 06:42:24;;;;;;;;;;;;;;;10.92;100.00;98652.61;1756373;79;20980;-88
2022/09/23 06:44:50;;;;;;;;;;;;;;;10.93;100.00;98654.30;1764470;79;24481;-88
2022/09/23 06:47:16;;;;;;;;;;;;;;;10.99;100.00;98653.88;1756673;79;20217;-88
2022/09/23 06:49:42;;;;;;;;;;;;;;;11.04;100.00;98653.09;1762843;80;20244;-88
2022/09/23 06:52:08;;;;;;;;;;;;;;;11.09;100.00;98654.92;1760107;79;21949;-88
2022/09/23 06:54:34;;;;;;;;;;;;;;;11.10;100.00;98654.45;1760881;79;21704;-88
2022/09/23 06:57:00;;;;;;;;;;;;;;;11.13;100.00;98659.47;1762054;79;24198;-85
2022/09/23 06:59:26;;;;;;;;;;;;;;;11.20;100.00;98668.59;1762841;79;20479;-86
2022/09/23 07:01:52;;;;;;;;;;;;;;;11.17;100.00;98672.28;1763875;79;20223;-86
2022/09/23 07:04:18;;;;;;;;;;;;;;;11.16;100.00;98666.67;1765651;79;22872;-86
2022/09/23 07:06:44;;;;;;;;;;;;;;;11.22;100.00;98671.49;1739878;80;26627;-86
2022/09/23 07:09:10;;;;;;;;;;;;;;;11.27;100.00;98672.02;1764995;79;20365;-86
2022/09/23 07:11:36;;;;;;;;;;;;;;;11.31;100.00;98676.55;1754335;79;20825;-86
2022/09/23 07:14:02;;;;;;;;;;;;;;;11.31;100.00;98670.01;1754605;80;24579;-86
2022/09/23 07:16:31;;;;;;;;;;;;;;;11.35;100.00;98677.20;1756999;79;20215;-86
2022/09/23 07:18:57;;;;;;;;;;;;;;;11.37;100.00;98670.89;1758399;79;26158;-86
2022/09/23 07:21:23;;;;;;;;;;;;;;;11.41;100.00;98671.04;1758810;79;20832;-86
2022/09/23 07:23:50;;;;;;;;;;;;;;;11.46;100.00;98678.11;1764898;80;20380;-89
2022/09/23 07:26:19;;;;;;;;;;;;;;;11.47;100.00;98672.40;1768457;79;24907;-89
2022/09/23 07:28:53;;;;;;;;;;;;;;;11.46;100.00;98678.58;1762795;79;22031;-89
2022/09/23 07:31:19;;;;;;;;;;;;;;;11.45;100.00;98671.22;1767473;79;25439;-89
2022/09/23 07:33:47;;;;;;;;;;;;;;;11.48;100.00;98673.61;1765822;80;20281;-90
2022/09/23 07:36:17;;;;;;;;;;;;;;;11.55;100.00;98670.94;1761572;80;20194;-90
2022/09/23 07:38:43;;;;;;;;;;;;;;;11.62;100.00;98680.49;1753587;80;24120;-90
2022/09/23 07:41:10;;;;;;;;;;;;;;;11.67;100.00;98683.16;1763275;80;20224;-90
2022/09/23 07:43:40;;;;;;;;;;;;;;;11.75;100.00;98681.35;1761151;80;22425;-89
2022/09/23 07:46:09;;;;;;;;;;;;;;;11.83;100.00;98679.52;1764423;80;24683;-89
2022/09/23 07:48:37;;;;;;;;;;;;;;;11.87;100.00;98683.11;1760487;80;20229;-86
2022/09/23 07:51:08;;;;;;;;;;;;;;;11.90;100.00;98682.05;1763521;80;24772;-86
2022/09/23 07:53:34;;;;;;;;;;;;;;;11.94;100.00;98681.73;1764915;80;21967;-89
2022/09/23 07:56:03;;;;;;;;;;;;;;;11.96;100.00;98675.89;1763219;80;26081;-89
2022/09/23 07:58:28;;;;;;;;;;;;;;;11.96;100.00;98683.76;1740691;82;24454;-89
2022/09/23 08:00:57;;;;;;;;;;;;;;;12.01;100.00;98686.89;1769542;79;20858;-89
2022/09/23 08:03:23;;;;;;;;;;;;;;;12.08;100.00;98682.89;1762784;80;24600;-88
2022/09/23 08:05:52;;;;;;;;;;;;;;;12.10;100.00;98678.38;1758715;79;20319;-89
2022/09/23 08:08:19;;;;;;;;;;;;;;;12.12;100.00;98678.25;1762442;80;25961;-89
2022/09/23 08:10:44;;;;;;;;;;;;;;;12.12;100.00;98679.09;1751571;81;25617;-89
2022/09/23 08:13:17;;;;;;;;;;;;;;;12.17;100.00;98678.75;1735536;80;20337;-89
2022/09/23 08:15:44;;;;;;;;;;;;;;;12.22;100.00;98683.19;1765309;80;25484;-89
2022/09/23 08:18:20;;;;;;;;;;;;;;;12.26;100.00;98677.27;1763816;80;22000;-89
2022/09/23 08:20:46;;;;;;;;;;;;;;;12.31;100.00;98680.39;1764435;80;25999;-89
2022/09/23 08:23:13;;;;;;;;;;;;;;;12.29;100.00;98670.47;1773506;79;20452;-89
2022/09/23 08:25:40;;;;;;;;;;;;;;;12.28;100.00;98680.13;1761882;80;20494;-89
2022/09/23 08:28:15;;;;;;;;;;;;;;;12.31;100.00;98677.30;1765926;80;25537;-88
2022/09/23 08:30:42;;;;;;;;;;;;;;;12.33;100.00;98672.75;1765663;80;21854;-89
2022/09/23 08:33:09;;;;;;;;;;;;;;;12.33;100.00;98672.75;1762029;80;26076;-89
2022/09/23 08:35:35;;;;;;;;;;;;;;;12.34;100.00;98665.72;1760833;80;24501;-89
2022/09/23 08:38:01;;;;;;;;;;;;;;;12.37;100.00;98664.20;1765445;81;20835;-89
2022/09/23 08:40:27;;;;;;;;;;;;;;;12.40;100.00;98666.58;1760609;80;20226;-89
2022/09/23 08:42:54;;;;;;;;;;;;;;;12.45;100.00;98668.39;1757906;80;22053;-86
2022/09/23 08:45:21;;;;;;;;;;;;;;;12.49;100.00;98665.42;1762478;79;21849;-86
2022/09/23 08:48:00;;;;;;;;;;;;;;;12.46;100.00;98664.82;1756783;79;24433;-86
2022/09/23 08:50:27;;;;;;;;;;;;;;;12.50;100.00;98662.33;1733038;80;20493;-86
2022/09/23 08:52:57;;;;;;;;;;;;;;;12.55;100.00;98659.72;1741710;81;24714;-85
2022/09/23 08:55:37;;;;;;;;;;;;;;;12.64;100.00;98656.91;1736382;81;22032;-86
2022/09/23 08:58:06;;;;;;;;;;;;;;;12.59;100.00;98656.41;1734561;81;26046;-86
2022/09/23 09:00:34;;;;;;;;;;;;;;;12.65;100.00;98653.80;1736761;81;25325;-86
2022/09/23 09:03:00;;;;;;;;;;;;;;;12.77;100.00;98652.86;1734674;81;20485;-85
2022/09/23 09:05:28;;;;;;;;;;;;;;;12.84;100.00;98652.30;1736900;81;24516;-85
2022/09/23 09:07:58;;;;;;;;;;;;;;;12.88;100.00;98652.42;1737297;81;21999;-85
2022/09/23 09:10:25;;;;;;;;;;;;;;;12.91;100.00;98652.20;1737177;81;25976;-86
2022/09/23 09:12:53;;;;;;;;;;;;;;;12.83;100.00;98658.50;1735485;82;24518;-85
2022/09/23 09:15:25;;;;;;;;;;;;;;;12.81;100.00;98653.86;1678402;82;20246;-85
2022/09/23 09:18:08;;;;;;;;;;;;;;;12.81;100.00;98649.91;1737801;82;24740;-86
2022/09/23 09:20:41;;;;;;;;;;;;;;;12.78;100.00;98652.75;1738457;81;22097;-85
2022/09/23 09:23:10;;;;;;;;;;;;;;;12.81;100.00;98648.60;1736654;81;26000;-88
2022/09/23 09:25:41;;;;;;;;;;;;;;;12.90;100.00;98647.89;1739808;81;24579;-88
2022/09/23 09:28:21;;;;;;;;;;;;;;;12.99;100.00;98641.93;1738447;81;20160;-88
2022/09/23 09:30:51;;;;;;;;;;;;;;;13.12;100.00;98640.55;1735728;82;25261;-88
2022/09/23 09:33:19;;;;;;;;;;;;;;;13.14;100.00;98634.72;1738330;82;22110;-89
2022/09/23 09:36:09;;;;;;;;;;;;;;;13.15;100.00;98635.52;1739550;80;26780;-89
2022/09/23 09:38:35;;;;;;;;;;;;;;;13.30;100.00;98632.58;1737421;82;24544;-89
2022/09/23 09:41:14;;;;;;;;;;;;;;;13.48;100.00;98640.80;1735214;82;20192;-89
2022/09/23 09:43:42;;;;;;;;;;;;;;;13.63;100.00;98633.05;1737402;82;25091;-88
2022/09/23 09:46:28;;;;;;;;;;;;;;;13.75;100.00;98631.20;1737532;81;22083;-88
2022/09/23 09:48:58;;;;;;;;;;;;;;;13.74;100.00;98625.61;1733310;80;26033;-88
2022/09/23 09:51:26;;;;;;;;;;;;;;;13.78;100.00;98616.52;1735757;81;24412;-88
2022/09/23 09:53:53;;;;;;;;;;;;;;;13.67;100.00;98614.73;1734471;81;20140;-88
2022/09/23 09:56:25;;;;;;;;;;;;;;;13.74;100.00;98614.62;1737271;81;25311;-88
2022/09/23 09:58:56;;;;;;;;;;;;;;;13.70;100.00;98606.59;1731874;81;21890;-88
2022/09/23 10:01:26;;;;;;;;;;;;;;;13.70;100.00;98609.70;1735426;80;26098;-87
2022/09/23 10:04:06;;;;;;;;;;;;;;;13.71;100.00;98610.06;1736290;81;24434;-88
2022/09/23 10:06:33;;;;;;;;;;;;;;;13.58;100.00;98608.06;1737319;82;20164;-88
2022/09/23 10:09:13;;;;;;;;;;;;;;;13.53;100.00;98603.66;1739028;81;24535;-88
2022/09/23 10:11:39;;;;;;;;;;;;;;;13.63;100.00;98604.11;1696707;82;22075;-88
2022/09/23 10:14:20;;;;;;;;;;;;;;;13.79;100.00;98598.45;1738436;81;25980;-88
2022/09/23 10:16:47;;;;;;;;;;;;;;;13.76;100.00;98594.27;1733519;80;25413;-88
2022/09/23 10:19:15;;;;;;;;;;;;;;;13.80;100.00;98593.05;1717397;82;20262;-88
2022/09/23 10:21:42;;;;;;;;;;;;;;;13.87;100.00;98584.67;1733645;81;24691;-88
2022/09/23 10:24:09;;;;;;;;;;;;;;;14.05;100.00;98587.97;1736703;81;21985;-88
2022/09/23 10:26:47;;;;;;;;;;;;;;;14.15;100.00;98585.42;1736186;81;26640;-88
2022/09/23 10:29:15;;;;;;;;;;;;;;;14.28;100.00;98579.98;1737897;82;24471;-87
2022/09/23 10:31:43;;;;;;;;;;;;;;;14.35;100.00;98581.13;1731633;82;20520;-88
2022/09/23 10:34:28;;;;;;;;;;;;;;;14.39;100.00;98579.49;1738128;82;24630;-88
2022/09/23 10:36:55;;;;;;;;;;;;;;;14.43;100.00;98578.75;1738031;82;21980;-88
2022/09/23 10:47:42;;;;;;;;;;;;;;;14.40;100.00;98573.23;1737376;82;24634;-88
2022/09/23 10:50:13;;;;;;;;;;;;;;;14.39;100.00;98568.13;1747000;80;22222;-88
2022/09/23 10:52:58;;;;;;;;;;;;;;;14.40;100.00;98566.66;1723034;81;26635;-88
2022/09/23 10:55:32;;;;;;;;;;;;;;;14.47;100.00;98559.09;1752298;80;25210;-88
2022/09/23 10:58:16;;;;;;;;;;;;;;;14.51;100.00;98562.64;1713016;82;20228;-88
2022/09/23 11:01:03;;;;;;;;;;;;;;;14.37;100.00;98563.45;1655377;84;20693;-88
2022/09/23 11:03:46;;;;;;;;;;;;;;;14.41;100.00;98564.38;1711280;82;22257;-88
2022/09/23 11:06:25;;;;;;;;;;;;;;;14.49;100.00;98562.44;1678203;83;25956;-88
2022/09/23 11:08:59;;;;;;;;;;;;;;;14.57;100.00;98558.19;1679638;85;25262;-89
2022/09/23 11:11:44;;;;;;;;;;;;;;;14.49;100.00;98556.69;1708652;82;20354;-88
2022/09/23 11:14:27;;;;;;;;;;;;;;;14.37;100.00;98559.50;1680981;83;24598;-88
2022/09/23 11:17:13;;;;;;;;;;;;;;;14.28;100.00;98565.52;1710918;82;21976;-88
2022/09/23 11:19:40;;;;;;;;;;;;;;;14.32;100.00;98553.28;1677889;84;26004;-88
2022/09/23 11:22:12;;;;;;;;;;;;;;;14.44;100.00;98548.34;1680337;84;25118;-88
2022/09/23 11:24:50;;;;;;;;;;;;;;;14.57;100.00;98545.50;1710075;82;20194;-88
2022/09/23 11:27:28;;;;;;;;;;;;;;;14.70;100.00;98540.03;1679579;84;25574;-88
2022/09/23 11:30:11;;;;;;;;;;;;;;;14.55;100.00;98546.96;1711229;82;22189;-88
2022/09/23 11:33:02;;;;;;;;;;;;;;;14.69;100.00;98540.99;1688686;83;26025;-88
2022/09/23 11:35:28;;;;;;;;;;;;;;;14.95;100.00;98543.55;1709162;82;24524;-88
2022/09/23 11:37:59;;;;;;;;;;;;;;;15.14;100.00;98533.10;1680533;84;20275;-88
2022/09/23 11:40:28;;;;;;;;;;;;;;;15.33;100.00;98534.95;1712306;82;24611;-87
2022/09/23 11:42:57;;;;;;;;;;;;;;;15.58;100.00;98532.36;1680176;84;22577;-88
2022/09/23 11:45:43;;;;;;;;;;;;;;;15.78;100.00;98529.60;1711971;82;26048;-88
2022/09/23 11:48:10;;;;;;;;;;;;;;;15.84;100.00;98526.91;1691733;82;24594;-88
2022/09/23 11:50:38;;;;;;;;;;;;;;;15.90;100.00;98527.19;1700015;82;20226;-88
2022/09/23 11:53:24;;;;;;;;;;;;;;;15.93;100.00;98525.26;1764731;79;24607;-88
2022/09/23 11:55:58;;;;;;;;;;;;;;;15.86;100.00;98523.17;1759873;79;21951;-88
2022/09/23 11:58:26;;;;;;;;;;;;;;;15.59;100.00;98520.36;1734467;79;25326;-88
2022/09/23 12:00:57;;;;;;;;;;;;;;;15.43;100.00;98518.70;1765476;79;24403;-88
2022/09/23 12:03:28;;;;;;;;;;;;;;;15.31;100.00;98527.20;1764468;79;20492;-87
2022/09/23 12:06:02;;;;;;;;;;;;;;;15.20;100.00;98522.51;1762639;80;24779;-88
2022/09/23 12:08:29;;;;;;;;;;;;;;;15.33;100.00;98516.02;1763406;80;22069;-88
2022/09/23 12:10:57;;;;;;;;;;;;;;;15.30;100.00;98511.02;1769710;79;26730;-88
2022/09/23 12:13:41;;;;;;;;;;;;;;;15.23;100.00;98521.75;1766437;79;24136;-88
2022/09/23 12:16:09;;;;;;;;;;;;;;;15.26;100.00;98517.54;1766802;80;20475;-88
2022/09/23 12:18:54;;;;;;;;;;;;;;;15.23;100.00;98519.11;1763456;79;24535;-87
2022/09/23 12:21:37;;;;;;;;;;;;;;;15.08;100.00;98512.55;1769537;80;22153;-88
2022/09/23 12:24:05;;;;;;;;;;;;;;;15.06;100.00;98507.87;1759113;79;26981;-88
2022/09/23 12:26:32;;;;;;;;;;;;;;;15.00;100.00;98501.84;1764821;79;25250;-87
2022/09/23 12:29:00;;;;;;;;;;;;;;;14.84;100.00;98504.11;1765009;80;20464;-87
2022/09/23 12:31:29;;;;;;;;;;;;;;;14.80;100.00;98510.14;1766977;80;24528;-88
2022/09/23 12:33:54;;;;;;;;;;;;;;;14.80;100.00;98500.91;1762854;79;21820;-88
2022/09/23 12:36:25;;;;;;;;;;;;;;;14.68;100.00;98497.17;1769027;80;25560;-89
2022/09/23 12:38:53;;;;;;;;;;;;;;;14.62;100.00;98499.84;1762162;79;24907;-88
2022/09/23 12:41:21;;;;;;;;;;;;;;;14.58;100.00;98493.17;1769590;79;20442;-88
2022/09/23 12:43:55;;;;;;;;;;;;;;;14.55;100.00;98490.82;1764334;79;24548;-88
2022/09/23 12:46:24;;;;;;;;;;;;;;;14.50;100.00;98497.80;1771288;79;22059;-88
2022/09/23 12:48:59;;;;;;;;;;;;;;;14.47;100.00;98489.30;1764187;79;25994;-88
2022/09/23 12:51:27;;;;;;;;;;;;;;;14.45;100.00;98490.77;1764691;80;24417;-88
2022/09/23 12:53:54;;;;;;;;;;;;;;;14.47;100.00;98489.30;1762456;79;20174;-88
2022/09/23 12:56:28;;;;;;;;;;;;;;;14.58;100.00;98488.75;1742667;80;24665;-87
2022/09/23 12:58:59;;;;;;;;;;;;;;;14.73;100.00;98480.52;1768413;79;21992;-88
2022/09/23 13:01:29;;;;;;;;;;;;;;;14.69;100.00;98476.45;1765055;79;26222;-87
2022/09/23 13:06:44;;;;;;;;;;;;;;;14.36;100.00;98480.97;1760702;79;20241;-88
2022/09/23 13:09:14;;;;;;;;;;;;;;;14.33;100.00;98476.45;1766358;79;24552;-88
2022/09/23 13:11:42;;;;;;;;;;;;;;;14.30;100.00;98469.63;1758419;79;22303;-88
2022/09/23 13:14:11;;;;;;;;;;;;;;;14.26;100.00;98469.55;1759376;79;25967;-88